createdAt,value
2017-09-11T00:00:37.571Z,13.60
2017-09-11T00:03:05.071Z,13.50
2017-09-11T00:05:33.363Z,15.00
2017-09-11T00:08:00.872Z,13.50
2017-09-11T00:10:28.380Z,13.50
2017-09-11T00:12:55.901Z,13.50
2017-09-11T00:15:23.418Z,13.50
2017-09-11T00:17:50.954Z,13.60
2017-09-11T00:20:18.491Z,13.50
2017-09-11T00:22:46.769Z,13.60
2017-09-11T00:25:15.075Z,13.60
2017-09-11T00:27:42.593Z,13.60
2017-09-11T00:30:10.107Z,13.60
2017-09-11T00:32:37.661Z,13.50
2017-09-11T00:35:05.178Z,13.70
2017-09-11T00:37:33.478Z,13.70
2017-09-11T00:40:00.998Z,13.70
2017-09-11T00:42:28.532Z,13.70
2017-09-11T00:44:56.032Z,13.80
2017-09-11T00:47:24.316Z,13.80
2017-09-11T00:49:51.861Z,13.80
2017-09-11T00:52:20.123Z,13.90
2017-09-11T00:54:47.676Z,13.90
2017-09-11T00:57:15.185Z,13.90
2017-09-11T00:59:42.770Z,13.90
2017-09-11T01:02:10.306Z,13.90
2017-09-11T01:04:37.799Z,13.90
2017-09-11T01:07:05.342Z,13.90
2017-09-11T01:09:32.840Z,13.80
2017-09-11T01:12:00.331Z,13.80
2017-09-11T01:14:27.936Z,13.90
2017-09-11T01:16:55.430Z,13.90
2017-09-11T01:19:23.744Z,13.90
2017-09-11T01:21:51.241Z,13.90
2017-09-11T01:24:18.762Z,13.90
2017-09-11T01:26:46.310Z,14.00
2017-09-11T01:29:13.807Z,14.00
2017-09-11T01:31:41.357Z,14.00
2017-09-11T01:34:08.868Z,14.00
2017-09-11T01:36:37.127Z,14.10
2017-09-11T01:39:05.429Z,14.20
2017-09-11T01:41:32.941Z,14.20
2017-09-11T01:44:01.231Z,14.30
2017-09-11T01:46:29.495Z,14.30
2017-09-11T01:48:56.995Z,14.30
2017-09-11T01:51:24.507Z,14.40
2017-09-11T01:53:52.022Z,14.40
2017-09-11T01:56:19.556Z,14.40
2017-09-11T01:58:47.829Z,14.40
2017-09-11T02:01:16.091Z,14.50
2017-09-11T02:03:44.378Z,14.50
2017-09-11T02:06:12.662Z,14.50
2017-09-11T02:08:40.981Z,14.50
2017-09-11T02:11:08.519Z,14.50
2017-09-11T02:13:36.050Z,14.40
2017-09-11T02:16:04.346Z,14.50
2017-09-11T02:18:31.921Z,14.50
2017-09-11T02:20:59.452Z,14.40
2017-09-11T02:23:27.729Z,14.50
2017-09-11T02:25:56.010Z,14.50
2017-09-11T02:28:23.537Z,14.50
2017-09-11T02:30:51.148Z,14.50
2017-09-11T02:33:18.672Z,14.40
2017-09-11T02:35:46.950Z,14.40
2017-09-11T02:38:15.262Z,14.40
2017-09-11T02:40:42.802Z,14.40
2017-09-11T02:43:10.380Z,14.40
2017-09-11T02:45:37.872Z,14.40
2017-09-11T02:48:05.399Z,14.30
2017-09-11T02:50:32.921Z,14.30
2017-09-11T02:53:01.188Z,14.20
2017-09-11T02:55:29.476Z,14.20
2017-09-11T02:57:57.758Z,14.20
2017-09-11T03:00:26.015Z,14.20
2017-09-11T03:02:54.326Z,14.20
2017-09-11T03:05:21.816Z,14.20
2017-09-11T03:07:49.319Z,14.20
2017-09-11T03:10:17.633Z,14.10
2017-09-11T03:12:45.136Z,14.10
2017-09-11T03:15:13.414Z,14.10
2017-09-11T03:17:41.729Z,14.00
2017-09-11T03:20:09.228Z,14.00
2017-09-11T03:22:36.752Z,14.00
2017-09-11T03:25:04.294Z,14.00
2017-09-11T03:27:31.795Z,14.00
2017-09-11T03:29:59.310Z,14.00
2017-09-11T03:32:26.852Z,14.00
2017-09-11T03:34:55.124Z,13.90
2017-09-11T03:37:23.396Z,13.90
2017-09-11T03:39:51.696Z,13.90
2017-09-11T03:42:19.196Z,13.90
2017-09-11T03:44:46.696Z,13.90
2017-09-11T03:47:15.011Z,13.90
2017-09-11T03:49:42.539Z,13.80
2017-09-11T03:52:10.800Z,13.80
2017-09-11T03:54:39.111Z,13.80
2017-09-11T03:57:06.680Z,13.80
2017-09-11T03:59:34.194Z,13.80
2017-09-11T04:02:02.502Z,13.80
2017-09-11T04:04:30.015Z,13.80
2017-09-11T04:06:57.533Z,13.80
2017-09-11T04:09:25.060Z,13.80
2017-09-11T04:11:53.319Z,13.80
2017-09-11T04:14:20.830Z,13.80
2017-09-11T04:16:48.355Z,13.80
2017-09-11T04:19:15.869Z,13.80
2017-09-11T04:21:43.364Z,13.80
2017-09-11T04:24:11.652Z,13.80
2017-09-11T04:26:39.924Z,13.80
2017-09-11T04:29:08.223Z,13.80
2017-09-11T04:31:35.766Z,13.70
2017-09-11T04:34:04.032Z,13.70
2017-09-11T04:36:32.313Z,13.70
2017-09-11T04:39:00.608Z,13.70
2017-09-11T04:41:28.109Z,13.70
2017-09-11T04:43:55.640Z,13.70
2017-09-11T04:46:23.200Z,13.60
2017-09-11T04:48:50.710Z,13.60
2017-09-11T04:51:18.992Z,13.50
2017-09-11T04:53:47.302Z,13.50
2017-09-11T04:56:14.799Z,13.50
2017-09-11T04:58:42.295Z,13.50
2017-09-11T05:01:09.834Z,13.50
2017-09-11T05:03:37.468Z,13.50
2017-09-11T05:06:05.460Z,13.40
2017-09-11T05:08:32.987Z,13.40
2017-09-11T05:11:00.960Z,13.40
2017-09-11T05:13:28.483Z,13.40
2017-09-11T05:15:56.035Z,13.40
2017-09-11T05:18:23.550Z,13.40
2017-09-11T05:20:51.043Z,13.50
2017-09-11T05:23:19.348Z,13.50
2017-09-11T05:25:46.870Z,13.50
2017-09-11T05:28:15.156Z,13.50
2017-09-11T05:30:43.443Z,13.50
2017-09-11T05:33:10.952Z,13.50
2017-09-11T05:35:38.478Z,13.50
2017-09-11T05:38:06.023Z,13.50
2017-09-11T05:40:34.404Z,13.50
2017-09-11T05:43:01.932Z,13.50
2017-09-11T05:45:29.459Z,13.60
2017-09-11T05:47:56.987Z,13.60
2017-09-11T05:50:24.501Z,13.50
2017-09-11T05:52:52.814Z,13.50
2017-09-11T05:55:20.691Z,13.50
2017-09-11T05:57:48.183Z,13.50
2017-09-11T06:00:15.724Z,13.50
2017-09-11T06:02:43.247Z,13.50
2017-09-11T06:05:10.774Z,13.50
2017-09-11T06:07:39.078Z,13.60
2017-09-11T06:10:06.576Z,13.50
2017-09-11T06:12:34.113Z,13.60
2017-09-11T06:15:01.664Z,13.50
2017-09-11T06:17:29.172Z,13.60
2017-09-11T06:19:56.682Z,13.60
2017-09-11T06:22:24.246Z,13.50
2017-09-11T06:24:51.770Z,13.50
2017-09-11T06:27:20.049Z,13.50
2017-09-11T06:29:48.354Z,13.50
2017-09-11T06:32:15.921Z,13.50
2017-09-11T06:34:43.430Z,13.50
2017-09-11T06:37:11.745Z,13.50
2017-09-11T06:39:39.235Z,13.50
2017-09-11T06:42:06.750Z,13.40
2017-09-11T06:44:34.281Z,13.30
2017-09-11T06:47:02.552Z,13.30
2017-09-11T06:49:30.060Z,13.30
2017-09-11T06:51:57.610Z,13.30
2017-09-11T06:54:25.130Z,13.50
2017-09-11T06:56:52.633Z,13.70
2017-09-11T06:59:20.174Z,13.80
2017-09-11T07:01:48.458Z,13.90
2017-09-11T07:04:15.968Z,13.90
2017-09-11T07:06:43.508Z,13.90
2017-09-11T07:09:11.038Z,13.90
2017-09-11T07:11:38.545Z,13.90
2017-09-11T07:14:06.072Z,13.90
2017-09-11T07:16:33.572Z,13.90
2017-09-11T07:19:01.849Z,14.00
2017-09-11T07:21:29.386Z,14.00
2017-09-11T07:23:56.883Z,14.00
2017-09-11T07:26:25.158Z,14.00
2017-09-11T07:28:53.451Z,14.10
2017-09-11T07:31:20.961Z,14.10
2017-09-11T07:33:48.476Z,14.10
2017-09-11T07:36:16.009Z,14.20
2017-09-11T07:38:44.292Z,14.20
2017-09-11T07:41:11.791Z,14.20
2017-09-11T07:43:39.355Z,14.20
2017-09-11T07:46:06.878Z,14.20
2017-09-11T07:48:34.390Z,14.20
2017-09-11T07:51:01.916Z,14.20
2017-09-11T07:53:29.430Z,14.20
2017-09-11T07:55:57.719Z,14.20
2017-09-11T07:58:25.252Z,14.20
2017-09-11T08:00:52.759Z,14.20
2017-09-11T08:03:20.277Z,14.10
2017-09-11T08:05:48.591Z,14.20
2017-09-11T08:08:16.111Z,14.20
2017-09-11T08:10:44.402Z,14.10
2017-09-11T08:13:12.714Z,14.30
2017-09-11T08:15:40.224Z,14.20
2017-09-11T08:18:08.501Z,14.20
2017-09-11T08:20:36.817Z,14.20
2017-09-11T08:23:04.328Z,14.20
2017-09-11T08:25:32.626Z,14.30
2017-09-11T08:28:00.943Z,14.40
2017-09-11T08:30:28.444Z,14.40
2017-09-11T08:32:56.712Z,14.50
2017-09-11T08:35:24.247Z,14.50
2017-09-11T08:37:51.739Z,14.90
2017-09-11T08:40:20.005Z,15.30
2017-09-11T08:42:48.322Z,15.60
2017-09-11T08:45:15.827Z,15.50
2017-09-11T08:47:43.325Z,15.50
2017-09-11T08:50:10.856Z,15.50
2017-09-11T08:52:39.136Z,15.90
2017-09-11T08:55:07.413Z,16.30
2017-09-11T08:57:35.726Z,16.80
2017-09-11T09:00:03.242Z,16.80
2017-09-11T09:02:30.759Z,17.50
2017-09-11T09:04:58.302Z,17.60
2017-09-11T09:07:25.808Z,17.90
2017-09-11T09:09:53.318Z,19.00
2017-09-11T09:12:20.852Z,20.30
2017-09-11T09:14:49.139Z,21.40
2017-09-11T09:17:16.662Z,21.30
2017-09-11T09:19:44.277Z,20.10
2017-09-11T09:22:11.780Z,19.10
2017-09-11T09:24:39.289Z,19.40
2017-09-11T09:27:06.820Z,21.10
2017-09-11T09:29:35.111Z,22.40
2017-09-11T09:32:02.628Z,22.30
2017-09-11T09:34:30.919Z,23.30
2017-09-11T09:36:58.439Z,23.30
2017-09-11T09:39:25.958Z,23.10
2017-09-11T09:41:53.502Z,23.20
2017-09-11T09:44:21.780Z,23.00
2017-09-11T09:46:49.298Z,22.90
2017-09-11T09:49:16.828Z,24.40
2017-09-11T09:51:44.327Z,23.90
2017-09-11T09:54:11.827Z,24.00
2017-09-11T09:56:39.351Z,23.60
2017-09-11T09:59:06.870Z,24.00
2017-09-11T10:01:34.422Z,24.20
2017-09-11T10:04:01.970Z,22.70
2017-09-11T10:06:29.476Z,22.10
2017-09-11T10:08:56.986Z,20.70
2017-09-11T10:11:24.524Z,19.70
2017-09-11T10:13:52.794Z,18.20
2017-09-11T10:16:21.069Z,17.50
2017-09-11T10:18:49.386Z,17.30
2017-09-11T10:21:16.906Z,17.20
2017-09-11T10:23:45.168Z,18.50
2017-09-11T10:26:12.710Z,18.50
2017-09-11T10:28:40.208Z,20.40
2017-09-11T10:31:08.491Z,23.20
2017-09-11T10:33:36.068Z,23.20
2017-09-11T10:36:03.587Z,24.60
2017-09-11T10:38:31.866Z,25.20
2017-09-11T10:41:00.155Z,23.60
2017-09-11T10:43:28.434Z,22.70
2017-09-11T10:45:55.932Z,22.60
2017-09-11T10:48:23.470Z,22.50
2017-09-11T10:50:50.983Z,22.40
2017-09-11T10:53:19.308Z,24.10
2017-09-11T10:55:46.839Z,24.10
2017-09-11T10:58:14.350Z,25.60
2017-09-11T11:00:41.866Z,27.10
2017-09-11T11:03:09.419Z,27.50
2017-09-11T11:05:36.999Z,24.30
2017-09-11T11:08:04.514Z,23.80
2017-09-11T11:10:33.403Z,27.90
2017-09-11T11:13:01.675Z,29.50
2017-09-11T11:15:29.179Z,29.30
2017-09-11T11:17:56.742Z,29.80
2017-09-11T11:20:24.263Z,29.30
2017-09-11T11:22:52.533Z,32.40
2017-09-11T11:25:20.845Z,32.20
2017-09-11T11:27:48.348Z,32.20
2017-09-11T11:30:15.843Z,29.80
2017-09-11T11:32:44.146Z,32.30
2017-09-11T11:35:11.679Z,32.30
2017-09-11T11:37:39.226Z,32.60
2017-09-11T11:40:36.534Z,32.40
2017-09-11T11:43:04.036Z,31.10
2017-09-11T11:45:32.313Z,26.00
2017-09-11T11:48:00.650Z,26.30
2017-09-11T11:50:28.156Z,26.30
2017-09-11T11:52:56.439Z,28.90
2017-09-11T11:55:24.844Z,26.40
2017-09-11T11:57:52.401Z,26.30
2017-09-11T12:00:19.905Z,23.80
2017-09-11T12:02:47.431Z,22.40
2017-09-11T12:05:14.959Z,21.50
2017-09-11T12:07:42.474Z,21.00
2017-09-11T12:10:10.018Z,20.40
2017-09-11T12:12:37.552Z,20.20
2017-09-11T12:15:05.061Z,19.90
2017-09-11T12:17:32.673Z,22.00
2017-09-11T12:20:00.172Z,27.60
2017-09-11T12:22:27.668Z,28.90
2017-09-11T12:24:55.196Z,30.80
2017-09-11T12:27:22.708Z,31.10
2017-09-11T12:29:50.226Z,31.10
2017-09-11T12:32:18.537Z,28.90
2017-09-11T12:34:46.040Z,28.80
2017-09-11T12:37:13.554Z,27.30
2017-09-11T12:39:41.090Z,23.90
2017-09-11T12:42:08.597Z,22.80
2017-09-11T12:44:36.097Z,24.10
2017-09-11T12:47:04.512Z,30.40
2017-09-11T12:49:32.034Z,30.30
2017-09-11T12:52:00.317Z,29.00
2017-09-11T12:54:28.613Z,27.10
2017-09-11T12:56:56.129Z,27.00
2017-09-11T12:59:23.628Z,29.70
2017-09-11T13:01:51.175Z,29.10
2017-09-11T13:04:18.676Z,28.60
2017-09-11T13:06:46.187Z,28.30
2017-09-11T13:09:13.721Z,28.90
2017-09-11T13:11:41.227Z,30.90
2017-09-11T13:14:08.728Z,31.80
2017-09-11T13:16:36.278Z,29.60
2017-09-11T13:19:03.802Z,30.60
2017-09-11T13:21:31.326Z,31.80
2017-09-11T13:23:59.633Z,26.80
2017-09-11T13:26:27.128Z,26.70
2017-09-11T13:28:54.648Z,27.90
2017-09-11T13:31:22.198Z,25.70
2017-09-11T13:33:49.715Z,23.80
2017-09-11T13:36:17.239Z,22.60
2017-09-11T13:38:44.768Z,23.70
2017-09-11T13:41:12.291Z,23.90
2017-09-11T13:43:39.803Z,23.50
2017-09-11T13:46:07.336Z,25.40
2017-09-11T13:48:34.855Z,25.20
2017-09-11T13:51:02.391Z,25.70
2017-09-11T13:53:29.915Z,25.10
2017-09-11T13:55:57.487Z,25.70
2017-09-11T13:58:24.992Z,27.10
2017-09-11T14:00:52.520Z,28.00
2017-09-11T14:03:20.015Z,29.60
2017-09-11T14:05:47.530Z,24.90
2017-09-11T14:08:15.068Z,22.10
2017-09-11T14:10:42.589Z,21.50
2017-09-11T14:13:10.083Z,21.80
2017-09-11T14:15:38.407Z,26.00
2017-09-11T14:18:05.930Z,25.90
2017-09-11T14:20:34.244Z,25.20
2017-09-11T14:23:01.791Z,25.20
2017-09-11T14:25:29.318Z,24.40
2017-09-11T14:27:56.811Z,24.10
2017-09-11T14:30:24.384Z,23.20
2017-09-11T14:32:51.902Z,23.20
2017-09-11T14:35:20.182Z,25.60
2017-09-11T14:37:48.477Z,27.30
2017-09-11T14:40:15.995Z,27.30
2017-09-11T14:42:43.520Z,27.70
2017-09-11T14:45:11.063Z,24.60
2017-09-11T14:47:38.572Z,22.60
2017-09-11T14:50:06.072Z,21.10
2017-09-11T14:52:33.603Z,20.20
2017-09-11T14:55:01.869Z,20.40
2017-09-11T14:57:29.369Z,20.30
2017-09-11T14:59:56.918Z,20.60
2017-09-11T15:02:24.439Z,21.70
2017-09-11T15:04:52.699Z,19.70
2017-09-11T15:07:20.402Z,19.60
2017-09-11T15:09:47.899Z,19.10
2017-09-11T15:12:15.410Z,19.60
2017-09-11T15:14:43.704Z,20.40
2017-09-11T15:17:11.216Z,20.40
2017-09-11T15:19:38.729Z,20.80
2017-09-11T15:22:06.296Z,21.50
2017-09-11T15:24:33.814Z,22.90
2017-09-11T15:27:02.071Z,23.40
2017-09-11T15:29:29.596Z,23.40
2017-09-11T15:31:57.096Z,23.20
2017-09-11T15:34:24.618Z,21.50
2017-09-11T15:36:52.144Z,19.80
2017-09-11T15:39:19.647Z,18.90
2017-09-11T15:41:47.158Z,18.70
2017-09-11T15:44:14.684Z,18.80
2017-09-11T15:46:42.203Z,18.90
2017-09-11T15:49:09.700Z,19.20
2017-09-11T15:51:37.228Z,18.70
2017-09-11T15:54:04.751Z,18.50
2017-09-11T15:56:32.243Z,18.40
2017-09-11T15:58:59.790Z,18.50
2017-09-11T16:01:27.344Z,19.10
2017-09-11T16:03:54.870Z,19.20
2017-09-11T16:06:23.164Z,18.70
2017-09-11T16:08:50.740Z,18.70
2017-09-11T16:11:18.240Z,18.60
2017-09-11T16:13:45.858Z,18.20
2017-09-11T16:16:13.352Z,17.80
2017-09-11T16:18:42.380Z,17.20
2017-09-11T16:21:10.663Z,17.10
2017-09-11T16:23:38.212Z,17.10
2017-09-11T16:26:06.475Z,16.90
2017-09-11T16:28:33.975Z,16.90
2017-09-11T16:31:01.492Z,16.80
2017-09-11T16:33:29.760Z,16.80
2017-09-11T16:35:57.303Z,16.80
2017-09-11T16:38:24.823Z,16.80
2017-09-11T16:40:52.365Z,16.80
2017-09-11T16:43:19.891Z,16.80
2017-09-11T16:45:47.434Z,16.80
2017-09-11T16:48:14.955Z,16.80
2017-09-11T16:50:42.475Z,16.70
2017-09-11T16:53:09.990Z,16.60
2017-09-11T16:55:37.493Z,16.50
2017-09-11T16:58:05.030Z,16.40
2017-09-11T17:00:32.534Z,16.40
2017-09-11T17:03:00.057Z,16.30
2017-09-11T17:05:29.081Z,16.20
2017-09-11T17:07:56.646Z,16.20
2017-09-11T17:10:24.164Z,16.20
2017-09-11T17:12:52.447Z,16.10
2017-09-11T17:15:21.491Z,16.00
2017-09-11T17:17:48.992Z,16.00
2017-09-11T17:20:18.004Z,15.90
2017-09-11T17:22:46.310Z,15.90
2017-09-11T17:25:13.832Z,15.90
2017-09-11T17:27:41.350Z,15.80
2017-09-11T17:30:08.875Z,15.80
2017-09-11T17:32:36.399Z,15.80
2017-09-11T17:35:03.923Z,15.70
2017-09-11T17:37:31.420Z,15.70
2017-09-11T17:40:00.536Z,15.60
2017-09-11T17:42:28.823Z,15.60
2017-09-11T17:44:56.328Z,15.60
2017-09-11T17:47:23.824Z,15.60
2017-09-11T17:49:52.133Z,15.60
2017-09-11T17:52:19.655Z,15.50
2017-09-11T17:54:47.920Z,15.40
2017-09-11T17:57:15.457Z,15.40
2017-09-11T17:59:42.975Z,15.40
2017-09-11T18:02:10.494Z,15.40
2017-09-11T18:04:38.806Z,15.40
2017-09-11T18:07:06.318Z,15.40
2017-09-11T18:09:33.835Z,15.30
2017-09-11T18:12:01.360Z,15.30
2017-09-11T18:14:29.619Z,15.00
2017-09-11T18:16:57.900Z,14.90
2017-09-11T18:19:25.427Z,14.90
2017-09-11T18:21:52.943Z,14.80
2017-09-11T18:24:20.456Z,14.70
2017-09-11T18:26:48.079Z,14.70
2017-09-11T18:29:15.650Z,14.60
2017-09-11T18:31:43.199Z,14.50
2017-09-11T18:34:10.738Z,14.50
2017-09-11T18:36:38.253Z,14.50
2017-09-11T18:39:05.775Z,14.50
2017-09-11T18:41:33.330Z,14.40
2017-09-11T18:44:00.837Z,14.90
2017-09-11T18:46:29.926Z,14.30
2017-09-11T18:48:57.440Z,14.30
2017-09-11T18:51:25.010Z,14.30
2017-09-11T18:53:52.594Z,14.30
2017-09-11T18:56:20.223Z,14.40
2017-09-11T18:58:47.727Z,14.40
2017-09-11T19:01:16.732Z,14.40
2017-09-11T19:03:44.274Z,14.40
2017-09-11T19:06:11.785Z,14.60
2017-09-11T19:08:39.349Z,14.60
2017-09-11T19:11:06.904Z,14.80
2017-09-11T19:13:34.414Z,14.80
2017-09-11T19:16:01.930Z,14.90
2017-09-11T19:18:29.467Z,14.90
2017-09-11T19:20:56.983Z,14.90
2017-09-11T19:23:24.507Z,14.90
2017-09-11T19:25:52.037Z,15.00
2017-09-11T19:28:19.594Z,14.90
2017-09-11T19:30:47.111Z,14.90
2017-09-11T19:33:14.664Z,14.80
2017-09-11T19:35:42.186Z,14.80
2017-09-11T19:38:09.692Z,14.80
2017-09-11T19:40:37.221Z,14.70
2017-09-11T19:43:04.743Z,14.70
2017-09-11T19:45:33.004Z,14.60
2017-09-11T19:48:01.287Z,14.50
2017-09-11T19:50:29.578Z,14.30
2017-09-11T19:52:57.096Z,14.30
2017-09-11T19:55:26.112Z,14.00
2017-09-11T19:57:54.430Z,13.80
2017-09-11T20:00:21.929Z,13.80
2017-09-11T20:02:50.204Z,13.50
2017-09-11T20:05:17.728Z,13.50
2017-09-11T20:07:45.277Z,13.30
2017-09-11T20:10:12.814Z,13.20
2017-09-11T20:12:40.346Z,13.10
2017-09-11T20:15:08.639Z,13.10
2017-09-11T20:17:36.936Z,13.10
2017-09-11T20:20:04.458Z,13.10
2017-09-11T20:22:32.746Z,13.10
2017-09-11T20:25:01.040Z,13.10
2017-09-11T20:27:28.540Z,13.10
2017-09-11T20:29:56.079Z,13.10
2017-09-11T20:32:23.626Z,13.10
2017-09-11T20:34:51.146Z,13.10
2017-09-11T20:37:18.639Z,13.10
2017-09-11T20:39:46.187Z,13.10
2017-09-11T20:42:13.687Z,13.10
2017-09-11T20:44:41.183Z,13.20
2017-09-11T20:47:09.500Z,13.20
2017-09-11T20:49:37.018Z,13.20
2017-09-11T20:52:05.283Z,13.10
2017-09-11T20:54:32.821Z,13.10
2017-09-11T20:57:00.455Z,13.10
2017-09-11T20:59:27.960Z,13.10
2017-09-11T21:01:55.491Z,13.20
2017-09-11T21:04:22.992Z,13.20
2017-09-11T21:06:51.278Z,13.20
2017-09-11T21:09:19.576Z,13.20
2017-09-11T21:11:47.140Z,13.20
2017-09-11T21:14:14.640Z,13.30
2017-09-11T21:16:42.203Z,13.50
2017-09-11T21:19:09.703Z,13.60
2017-09-11T21:21:37.227Z,13.60
2017-09-11T21:24:05.551Z,13.80
2017-09-11T21:26:33.062Z,13.80
2017-09-11T21:29:00.571Z,13.80
2017-09-11T21:31:28.118Z,13.70
2017-09-11T21:33:55.647Z,13.70
2017-09-11T21:36:23.958Z,13.70
2017-09-11T21:38:51.496Z,13.70
2017-09-11T21:41:19.080Z,13.60
2017-09-11T21:43:46.575Z,13.60
2017-09-11T21:46:14.111Z,13.50
2017-09-11T21:48:41.603Z,13.50
2017-09-11T21:51:09.166Z,13.50
2017-09-11T21:53:36.708Z,13.50
2017-09-11T21:56:04.226Z,13.50
2017-09-11T21:58:31.788Z,13.60
2017-09-11T22:00:59.316Z,13.60
2017-09-11T22:03:27.593Z,13.50
2017-09-11T22:05:55.874Z,13.40
2017-09-11T22:08:24.181Z,13.50
2017-09-11T22:10:51.680Z,13.50
2017-09-11T22:13:19.175Z,13.40
2017-09-11T22:15:46.700Z,13.50
2017-09-11T22:18:15.026Z,13.50
2017-09-11T22:20:42.546Z,13.50
2017-09-11T22:23:10.853Z,13.70
2017-09-11T22:25:38.375Z,13.70
2017-09-11T22:28:06.660Z,13.80
2017-09-11T22:30:34.974Z,13.80
2017-09-11T22:33:02.484Z,13.80
2017-09-11T22:35:29.998Z,13.90
2017-09-11T22:37:57.531Z,13.90
2017-09-11T22:40:25.051Z,14.00
2017-09-11T22:42:52.665Z,14.00
2017-09-11T22:45:20.192Z,14.00
2017-09-11T22:47:48.460Z,14.00
2017-09-11T22:50:16.746Z,14.00
2017-09-11T22:52:45.035Z,14.10
2017-09-11T22:55:12.527Z,14.10
2017-09-11T22:57:40.050Z,14.10
2017-09-11T23:00:07.598Z,14.10
2017-09-11T23:02:35.903Z,13.90
2017-09-11T23:05:03.408Z,13.90
2017-09-11T23:07:30.963Z,13.90
2017-09-11T23:09:58.460Z,13.90
2017-09-11T23:12:25.978Z,14.00
2017-09-11T23:14:53.595Z,14.00
2017-09-11T23:17:21.113Z,14.10
2017-09-11T23:19:49.385Z,14.10
2017-09-11T23:22:17.693Z,14.20
2017-09-11T23:24:45.219Z,14.20
2017-09-11T23:27:12.734Z,14.20
2017-09-11T23:29:40.276Z,14.10
2017-09-11T23:32:07.793Z,14.20
2017-09-11T23:34:36.834Z,14.10
2017-09-11T23:37:04.361Z,14.20
2017-09-11T23:39:32.739Z,14.20
2017-09-11T23:42:01.003Z,14.10
2017-09-11T23:44:28.541Z,14.10
2017-09-11T23:46:56.044Z,14.10
2017-09-11T23:49:23.538Z,14.00
2017-09-11T23:51:51.114Z,14.00
2017-09-11T23:54:19.395Z,14.10
2017-09-11T23:56:46.923Z,14.10
2017-09-11T23:59:14.472Z,14.10
